createdAt,value
2022-09-28T00:00:21.046Z,7.32
2022-09-28T00:01:21.140Z,7.34
2022-09-28T00:02:21.165Z,7.33
2022-09-28T00:03:20.984Z,7.32
2022-09-28T00:04:20.973Z,7.33
2022-09-28T00:05:20.953Z,7.32
2022-09-28T00:06:20.970Z,7.32
2022-09-28T00:07:20.933Z,7.30
2022-09-28T00:08:20.926Z,7.29
2022-09-28T00:09:20.908Z,7.27
2022-09-28T00:10:20.902Z,7.26
2022-09-28T00:11:20.961Z,7.26
2022-09-28T00:12:20.874Z,7.27
2022-09-28T00:13:20.860Z,7.24
2022-09-28T00:14:20.843Z,7.24
2022-09-28T00:15:20.825Z,7.26
2022-09-28T00:16:20.866Z,7.24
2022-09-28T00:17:20.804Z,7.24
2022-09-28T00:18:20.794Z,7.26
2022-09-28T00:19:20.773Z,7.23
2022-09-28T00:20:20.762Z,7.21
2022-09-28T00:21:20.763Z,7.21
2022-09-28T00:22:20.746Z,7.19
2022-09-28T00:23:20.723Z,7.19
2022-09-28T00:24:25.258Z,7.16
2022-09-28T00:25:21.697Z,7.14
2022-09-28T00:26:20.692Z,7.14
2022-09-28T00:27:20.681Z,7.11
2022-09-28T00:28:20.661Z,7.09
2022-09-28T00:29:20.640Z,7.09
2022-09-28T00:30:20.632Z,7.08
2022-09-28T00:31:20.651Z,7.08
2022-09-28T00:32:20.618Z,7.05
2022-09-28T00:33:20.592Z,7.05
2022-09-28T00:34:20.591Z,7.04
2022-09-28T00:35:20.571Z,7.01
2022-09-28T00:36:20.588Z,7.00
2022-09-28T00:37:20.541Z,6.99
2022-09-28T00:38:20.531Z,6.99
2022-09-28T00:39:20.513Z,6.96
2022-09-28T00:40:20.540Z,6.94
2022-09-28T00:41:20.492Z,6.93
2022-09-28T00:42:20.477Z,6.93
2022-09-28T00:43:20.462Z,6.93
2022-09-28T00:44:20.451Z,6.93
2022-09-28T00:45:20.430Z,6.91
2022-09-28T00:46:20.438Z,6.91
2022-09-28T00:47:20.401Z,6.91
2022-09-28T00:48:20.392Z,6.90
2022-09-28T00:49:20.381Z,6.90
2022-09-28T00:50:20.372Z,6.89
2022-09-28T00:51:20.370Z,6.90
2022-09-28T00:52:20.341Z,6.90
2022-09-28T00:53:20.333Z,6.91
2022-09-28T00:54:20.353Z,6.91
2022-09-28T00:55:20.302Z,6.90
2022-09-28T00:56:20.303Z,6.91
2022-09-28T00:57:20.270Z,6.91
2022-09-28T00:58:20.258Z,6.91
2022-09-28T00:59:20.251Z,6.93
2022-09-28T01:00:20.233Z,6.93
2022-09-28T01:01:20.261Z,6.94
2022-09-28T01:02:20.411Z,6.93
2022-09-28T01:03:20.201Z,6.94
2022-09-28T01:04:20.180Z,6.93
2022-09-28T01:05:20.168Z,6.91
2022-09-28T01:06:20.168Z,6.93
2022-09-28T01:07:20.149Z,6.91
2022-09-28T01:08:20.129Z,6.93
2022-09-28T01:09:20.118Z,6.93
2022-09-28T01:10:20.107Z,6.93
2022-09-28T01:11:20.097Z,6.94
2022-09-28T01:12:20.076Z,6.94
2022-09-28T01:13:20.087Z,6.96
2022-09-28T01:14:20.064Z,6.96
2022-09-28T01:15:20.047Z,6.97
2022-09-28T01:16:20.055Z,6.96
2022-09-28T01:17:20.021Z,6.96
2022-09-28T01:18:19.996Z,6.96
2022-09-28T01:19:19.985Z,6.94
2022-09-28T01:20:19.987Z,6.96
2022-09-28T01:21:19.967Z,6.94
2022-09-28T01:22:19.956Z,6.93
2022-09-28T01:23:19.925Z,6.91
2022-09-28T01:24:19.925Z,6.91
2022-09-28T01:25:19.927Z,6.91
2022-09-28T01:26:19.885Z,6.89
2022-09-28T01:27:19.884Z,6.90
2022-09-28T01:28:19.907Z,6.89
2022-09-28T01:29:19.854Z,6.87
2022-09-28T01:30:19.856Z,6.87
2022-09-28T01:31:19.905Z,6.89
2022-09-28T01:32:19.814Z,6.86
2022-09-28T01:33:19.805Z,6.86
2022-09-28T01:34:19.787Z,6.83
2022-09-28T01:35:19.787Z,6.86
2022-09-28T01:36:19.754Z,6.82
2022-09-28T01:37:19.753Z,6.83
2022-09-28T01:38:19.738Z,6.83
2022-09-28T01:39:19.725Z,6.83
2022-09-28T01:40:19.747Z,6.81
2022-09-28T01:41:19.695Z,6.81
2022-09-28T01:42:19.683Z,6.76
2022-09-28T01:43:19.672Z,6.75
2022-09-28T01:44:19.653Z,6.73
2022-09-28T01:45:19.664Z,6.69
2022-09-28T01:46:19.669Z,6.68
2022-09-28T01:47:19.623Z,6.65
2022-09-28T01:48:19.600Z,6.63
2022-09-28T01:49:19.595Z,6.63
2022-09-28T01:50:19.583Z,6.61
2022-09-28T01:51:19.565Z,6.61
2022-09-28T01:52:19.541Z,6.61
2022-09-28T01:53:19.534Z,6.60
2022-09-28T01:54:19.536Z,6.61
2022-09-28T01:55:19.513Z,6.61
2022-09-28T01:56:19.503Z,6.58
2022-09-28T01:57:19.481Z,6.55
2022-09-28T01:58:19.472Z,6.53
2022-09-28T01:59:19.472Z,6.53
2022-09-28T02:00:19.441Z,6.51
2022-09-28T02:01:19.481Z,6.50
2022-09-28T02:02:19.439Z,6.46
2022-09-28T02:03:19.412Z,6.43
2022-09-28T02:04:19.400Z,6.43
2022-09-28T02:05:19.387Z,6.36
2022-09-28T02:06:19.361Z,6.35
2022-09-28T02:07:19.350Z,6.30
2022-09-28T02:08:19.329Z,6.28
2022-09-28T02:09:19.345Z,6.25
2022-09-28T02:10:19.308Z,6.21
2022-09-28T02:11:19.304Z,6.20
2022-09-28T02:12:19.280Z,6.19
2022-09-28T02:13:19.272Z,6.16
2022-09-28T02:14:19.258Z,6.13
2022-09-28T02:15:19.245Z,6.10
2022-09-28T02:16:19.278Z,6.06
2022-09-28T02:17:19.216Z,6.03
2022-09-28T02:18:19.204Z,6.02
2022-09-28T02:19:19.200Z,5.98
2022-09-28T02:20:19.184Z,5.95
2022-09-28T02:21:19.172Z,5.90
2022-09-28T02:22:19.149Z,5.92
2022-09-28T02:23:19.139Z,5.90
2022-09-28T02:24:21.524Z,5.96
2022-09-28T02:25:19.106Z,5.96
2022-09-28T02:26:19.092Z,5.95
2022-09-28T02:27:19.090Z,5.96
2022-09-28T02:28:19.066Z,5.93
2022-09-28T02:29:19.150Z,5.90
2022-09-28T02:30:19.036Z,5.85
2022-09-28T02:31:19.082Z,5.84
2022-09-28T02:32:19.023Z,5.81
2022-09-28T02:33:19.006Z,5.81
2022-09-28T02:34:18.997Z,5.78
2022-09-28T02:35:18.986Z,5.77
2022-09-28T02:36:18.965Z,5.74
2022-09-28T02:37:18.947Z,5.70
2022-09-28T02:38:18.941Z,5.67
2022-09-28T02:39:19.021Z,5.66
2022-09-28T02:40:18.966Z,5.60
2022-09-28T02:41:18.930Z,5.58
2022-09-28T02:42:18.888Z,5.55
2022-09-28T02:43:18.875Z,5.51
2022-09-28T02:44:18.865Z,5.48
2022-09-28T02:45:18.847Z,5.45
2022-09-28T02:46:18.932Z,5.44
2022-09-28T02:47:18.813Z,5.41
2022-09-28T02:48:27.187Z,5.38
2022-09-28T02:49:22.022Z,5.37
2022-09-28T02:50:18.774Z,5.33
2022-09-28T02:51:18.786Z,5.30
2022-09-28T02:52:18.753Z,5.29
2022-09-28T02:53:18.744Z,5.26
2022-09-28T02:54:19.064Z,5.26
2022-09-28T02:55:18.718Z,5.26
2022-09-28T02:56:18.693Z,5.24
2022-09-28T02:57:18.692Z,5.22
2022-09-28T02:58:18.674Z,5.20
2022-09-28T02:59:18.678Z,5.19
2022-09-28T03:00:18.643Z,5.17
2022-09-28T03:01:18.691Z,5.17
2022-09-28T03:02:18.659Z,5.15
2022-09-28T03:03:18.611Z,5.14
2022-09-28T03:04:18.597Z,5.15
2022-09-28T03:05:18.572Z,5.14
2022-09-28T03:06:18.555Z,5.11
2022-09-28T03:07:18.550Z,5.11
2022-09-28T03:08:18.553Z,5.11
2022-09-28T03:09:18.648Z,5.09
2022-09-28T03:10:18.512Z,5.09
2022-09-28T03:11:18.499Z,5.08
2022-09-28T03:12:18.482Z,5.09
2022-09-28T03:13:18.471Z,5.09
2022-09-28T03:14:18.470Z,5.09
2022-09-28T03:15:18.442Z,5.09
2022-09-28T03:16:18.457Z,5.12
2022-09-28T03:17:18.410Z,5.14
2022-09-28T03:18:18.402Z,5.19
2022-09-28T03:19:18.500Z,5.23
2022-09-28T03:20:18.370Z,5.27
2022-09-28T03:21:18.360Z,5.29
2022-09-28T03:22:18.339Z,5.30
2022-09-28T03:23:25.669Z,5.35
2022-09-28T03:24:19.326Z,5.35
2022-09-28T03:25:18.298Z,5.37
2022-09-28T03:26:18.289Z,5.40
2022-09-28T03:27:18.287Z,5.42
2022-09-28T03:28:18.259Z,5.42
2022-09-28T03:29:18.403Z,5.42
2022-09-28T03:30:18.239Z,5.44
2022-09-28T03:31:18.236Z,5.45
2022-09-28T03:32:18.213Z,5.47
2022-09-28T03:33:18.199Z,5.47
2022-09-28T03:34:18.196Z,5.49
2022-09-28T03:35:18.167Z,5.51
2022-09-28T03:36:18.160Z,5.52
2022-09-28T03:37:18.158Z,5.60
2022-09-28T03:38:18.152Z,5.65
2022-09-28T03:39:18.277Z,5.67
2022-09-28T03:40:18.154Z,5.69
2022-09-28T03:41:18.093Z,5.74
2022-09-28T03:42:18.076Z,5.77
2022-09-28T03:43:18.079Z,5.78
2022-09-28T03:44:18.055Z,5.83
2022-09-28T03:45:18.039Z,5.85
2022-09-28T03:46:18.059Z,5.90
2022-09-28T03:47:18.015Z,5.95
2022-09-28T03:48:23.155Z,5.98
2022-09-28T03:49:18.983Z,5.99
2022-09-28T03:50:17.981Z,6.02
2022-09-28T03:51:17.955Z,6.03
2022-09-28T03:52:17.939Z,6.03
2022-09-28T03:53:17.944Z,6.05
2022-09-28T03:54:17.916Z,6.06
2022-09-28T03:55:17.902Z,6.08
2022-09-28T03:56:17.885Z,6.13
2022-09-28T03:57:17.875Z,6.19
2022-09-28T03:58:17.862Z,6.20
2022-09-28T03:59:17.948Z,6.20
2022-09-28T04:00:17.833Z,6.21
2022-09-28T04:01:18.275Z,6.20
2022-09-28T04:02:17.846Z,6.24
2022-09-28T04:03:17.803Z,6.24
2022-09-28T04:04:17.771Z,6.25
2022-09-28T04:05:17.765Z,6.28
2022-09-28T04:06:17.752Z,6.32
2022-09-28T04:07:17.738Z,6.35
2022-09-28T04:08:17.731Z,6.35
2022-09-28T04:09:17.812Z,6.38
2022-09-28T04:10:17.700Z,6.36
2022-09-28T04:11:17.683Z,6.39
2022-09-28T04:12:17.669Z,6.38
2022-09-28T04:13:17.664Z,6.40
2022-09-28T04:14:17.641Z,6.40
2022-09-28T04:15:17.632Z,6.42
2022-09-28T04:16:17.665Z,6.42
2022-09-28T04:17:17.600Z,6.42
2022-09-28T04:18:17.601Z,6.43
2022-09-28T04:19:17.692Z,6.45
2022-09-28T04:20:17.558Z,6.43
2022-09-28T04:21:17.553Z,6.46
2022-09-28T04:22:17.530Z,6.48
2022-09-28T04:23:17.537Z,6.50
2022-09-28T04:24:17.518Z,6.53
2022-09-28T04:25:17.502Z,6.53
2022-09-28T04:26:17.477Z,6.54
2022-09-28T04:27:17.479Z,6.57
2022-09-28T04:28:17.469Z,6.55
2022-09-28T04:29:17.631Z,6.55
2022-09-28T04:30:17.431Z,6.55
2022-09-28T04:31:17.440Z,6.57
2022-09-28T04:32:17.398Z,6.57
2022-09-28T04:33:17.400Z,6.58
2022-09-28T04:34:17.370Z,6.60
2022-09-28T04:35:17.375Z,6.61
2022-09-28T04:36:17.341Z,6.64
2022-09-28T04:37:17.339Z,6.68
2022-09-28T04:38:30.683Z,6.69
2022-09-28T04:39:18.453Z,6.71
2022-09-28T04:40:17.331Z,6.73
2022-09-28T04:41:17.288Z,6.72
2022-09-28T04:42:17.265Z,6.73
2022-09-28T04:43:17.307Z,6.75
2022-09-28T04:44:17.247Z,6.78
2022-09-28T04:45:17.229Z,6.79
2022-09-28T04:46:17.292Z,6.81
2022-09-28T04:47:17.219Z,6.81
2022-09-28T04:48:17.223Z,6.82
2022-09-28T04:49:17.320Z,6.83
2022-09-28T04:50:17.161Z,6.86
2022-09-28T04:51:17.146Z,6.86
2022-09-28T04:52:18.497Z,6.89
2022-09-28T04:53:17.446Z,6.89
2022-09-28T04:54:17.574Z,6.90
2022-09-28T04:55:17.097Z,6.91
2022-09-28T04:56:17.113Z,6.90
2022-09-28T04:57:17.064Z,6.91
2022-09-28T04:58:17.124Z,6.93
2022-09-28T04:59:17.195Z,6.94
2022-09-28T05:00:17.026Z,6.97
2022-09-28T05:01:17.119Z,6.99
2022-09-28T05:02:17.030Z,7.00
2022-09-28T05:03:17.014Z,7.04
2022-09-28T05:04:16.970Z,7.05
2022-09-28T05:05:17.173Z,7.07
2022-09-28T05:06:16.953Z,7.09
2022-09-28T05:07:16.936Z,7.12
2022-09-28T05:08:16.937Z,7.16
2022-09-28T05:09:16.967Z,7.21
2022-09-28T05:10:16.900Z,7.24
2022-09-28T05:11:16.883Z,7.27
2022-09-28T05:12:16.874Z,7.30
2022-09-28T05:13:16.862Z,7.32
2022-09-28T05:14:16.852Z,7.32
2022-09-28T05:15:16.822Z,7.33
2022-09-28T05:16:16.858Z,7.34
2022-09-28T05:17:16.802Z,7.34
2022-09-28T05:18:16.804Z,7.34
2022-09-28T05:19:16.877Z,7.36
2022-09-28T05:20:16.769Z,7.36
2022-09-28T05:21:16.749Z,7.37
2022-09-28T05:22:16.744Z,7.39
2022-09-28T05:23:16.740Z,7.41
2022-09-28T05:24:16.712Z,7.41
2022-09-28T05:25:16.700Z,7.42
2022-09-28T05:26:16.698Z,7.42
2022-09-28T05:27:16.669Z,7.44
2022-09-28T05:28:16.671Z,7.45
2022-09-28T05:29:16.775Z,7.45
2022-09-28T05:30:16.629Z,7.47
2022-09-28T05:31:16.691Z,7.45
2022-09-28T05:32:16.610Z,7.47
2022-09-28T05:33:16.603Z,7.48
2022-09-28T05:34:16.591Z,7.51
2022-09-28T05:35:16.559Z,7.51
2022-09-28T05:36:16.553Z,7.52
2022-09-28T05:37:16.532Z,7.52
2022-09-28T05:38:16.539Z,7.55
2022-09-28T05:39:16.598Z,7.57
2022-09-28T05:40:16.584Z,7.58
2022-09-28T05:41:16.491Z,7.58
2022-09-28T05:42:16.549Z,7.58
2022-09-28T05:43:16.470Z,7.60
2022-09-28T05:44:16.592Z,7.60
2022-09-28T05:45:16.436Z,7.62
2022-09-28T05:46:16.458Z,7.62
2022-09-28T05:47:16.408Z,7.63
2022-09-28T05:48:16.412Z,7.63
2022-09-28T05:49:16.377Z,7.63
2022-09-28T05:50:16.368Z,7.67
2022-09-28T05:51:16.356Z,7.70
2022-09-28T05:52:16.349Z,7.71
2022-09-28T05:53:16.336Z,7.74
2022-09-28T05:54:16.507Z,7.74
2022-09-28T05:55:16.308Z,7.77
2022-09-28T05:56:16.296Z,7.79
2022-09-28T05:57:16.280Z,7.81
2022-09-28T05:58:16.280Z,7.82
2022-09-28T05:59:16.246Z,7.86
2022-09-28T06:00:16.246Z,7.88
2022-09-28T06:01:16.276Z,7.88
2022-09-28T06:02:16.231Z,7.92
2022-09-28T06:03:16.208Z,7.94
2022-09-28T06:04:16.259Z,7.96
2022-09-28T06:05:16.174Z,7.99
2022-09-28T06:06:16.155Z,8.02
2022-09-28T06:07:16.149Z,8.03
2022-09-28T06:08:16.153Z,8.04
2022-09-28T06:09:16.115Z,8.06
2022-09-28T06:10:16.104Z,8.07
2022-09-28T06:11:16.095Z,8.09
2022-09-28T06:12:16.087Z,8.10
2022-09-28T06:13:16.092Z,8.12
2022-09-28T06:14:16.698Z,8.13
2022-09-28T06:15:16.038Z,8.14
2022-09-28T06:16:16.062Z,8.18
2022-09-28T06:17:16.026Z,8.21
2022-09-28T06:18:16.026Z,8.24
2022-09-28T06:19:16.021Z,8.25
2022-09-28T06:20:15.973Z,8.28
2022-09-28T06:21:15.956Z,8.31
2022-09-28T06:22:15.958Z,8.32
2022-09-28T06:23:15.945Z,8.34
2022-09-28T06:24:15.975Z,8.37
2022-09-28T06:25:15.906Z,8.37
2022-09-28T06:26:15.893Z,8.40
2022-09-28T06:27:15.882Z,8.43
2022-09-28T06:28:15.891Z,8.46
2022-09-28T06:29:19.310Z,8.49
2022-09-28T06:30:15.842Z,8.52
2022-09-28T06:31:15.948Z,8.54
2022-09-28T06:32:15.818Z,8.57
2022-09-28T06:33:15.823Z,8.58
2022-09-28T06:34:15.862Z,8.61
2022-09-28T06:35:15.789Z,8.64
2022-09-28T06:36:15.763Z,8.65
2022-09-28T06:37:15.753Z,8.67
2022-09-28T06:38:15.754Z,8.68
2022-09-28T06:39:15.720Z,8.71
2022-09-28T06:40:15.747Z,8.71
2022-09-28T06:41:15.694Z,8.76
2022-09-28T06:42:15.683Z,8.79
2022-09-28T06:43:15.675Z,8.82
2022-09-28T06:44:22.652Z,8.83
2022-09-28T06:45:15.639Z,8.86
2022-09-28T06:46:15.742Z,8.89
2022-09-28T06:47:15.849Z,8.93
2022-09-28T06:48:15.613Z,8.94
2022-09-28T06:49:19.290Z,8.97
2022-09-28T06:50:15.571Z,9.00
2022-09-28T06:51:15.561Z,9.01
2022-09-28T06:52:15.569Z,9.04
2022-09-28T06:53:15.540Z,9.08
2022-09-28T06:54:15.558Z,9.12
2022-09-28T06:55:15.502Z,9.13
2022-09-28T06:56:15.491Z,9.16
2022-09-28T06:57:15.478Z,9.16
2022-09-28T06:58:15.478Z,9.16
2022-09-28T06:59:15.455Z,9.17
2022-09-28T07:00:15.443Z,9.19
2022-09-28T07:01:15.517Z,9.17
2022-09-28T07:02:15.457Z,9.17
2022-09-28T07:03:15.414Z,9.17
2022-09-28T07:04:15.423Z,9.19
2022-09-28T07:05:15.369Z,9.19
2022-09-28T07:06:15.358Z,9.20
2022-09-28T07:07:15.371Z,9.20
2022-09-28T07:08:15.335Z,9.22
2022-09-28T07:09:30.800Z,9.23
2022-09-28T07:10:16.313Z,9.23
2022-09-28T07:11:15.285Z,9.26
2022-09-28T07:12:15.329Z,9.27
2022-09-28T07:13:40.790Z,9.30
2022-09-28T07:14:32.076Z,9.34
2022-09-28T07:15:16.235Z,9.38
2022-09-28T07:16:15.247Z,9.41
2022-09-28T07:17:15.479Z,9.42
2022-09-28T07:18:15.287Z,9.48
2022-09-28T07:19:15.184Z,9.49
2022-09-28T07:20:19.190Z,9.55
2022-09-28T07:21:26.136Z,9.58
2022-09-28T07:22:18.910Z,9.62
2022-09-28T07:23:19.334Z,9.65
2022-09-28T07:24:15.145Z,9.68
2022-09-28T07:25:15.105Z,9.71
2022-09-28T07:26:15.438Z,9.74
2022-09-28T07:27:15.089Z,9.77
2022-09-28T07:28:15.077Z,9.78
2022-09-28T07:29:15.059Z,9.80
2022-09-28T07:30:15.049Z,9.83
2022-09-28T07:31:15.075Z,9.85
2022-09-28T07:32:15.042Z,9.86
2022-09-28T07:33:14.996Z,9.85
2022-09-28T07:34:15.053Z,9.81
2022-09-28T07:35:14.976Z,9.83
2022-09-28T07:36:14.956Z,9.85
2022-09-28T07:37:14.955Z,9.83
2022-09-28T07:38:14.933Z,9.81
2022-09-28T07:39:14.925Z,9.80
2022-09-28T07:40:14.932Z,9.78
2022-09-28T07:41:14.893Z,9.77
2022-09-28T07:42:14.896Z,9.74
2022-09-28T07:43:14.856Z,9.74
2022-09-28T07:44:14.917Z,9.73
2022-09-28T07:45:14.842Z,9.73
2022-09-28T07:46:24.856Z,9.68
2022-09-28T07:47:14.811Z,9.68
2022-09-28T07:48:14.795Z,9.65
2022-09-28T07:49:14.821Z,9.63
2022-09-28T07:50:14.770Z,9.62
2022-09-28T07:51:14.769Z,9.59
2022-09-28T07:52:14.760Z,9.58
2022-09-28T07:53:14.720Z,9.59
2022-09-28T07:54:14.711Z,9.56
2022-09-28T07:55:14.699Z,9.53
2022-09-28T07:56:14.692Z,9.52
2022-09-28T07:57:14.741Z,9.50
2022-09-28T07:58:14.658Z,9.52
2022-09-28T07:59:14.729Z,9.52
2022-09-28T08:00:14.645Z,9.52
2022-09-28T08:01:14.742Z,9.53
2022-09-28T08:02:14.749Z,9.53
2022-09-28T08:03:14.590Z,9.53
2022-09-28T08:04:14.588Z,9.55
2022-09-28T08:05:14.574Z,9.56
2022-09-28T08:06:14.557Z,9.56
2022-09-28T08:07:14.557Z,9.58
2022-09-28T08:08:14.527Z,9.60
2022-09-28T08:09:14.592Z,9.60
2022-09-28T08:10:14.515Z,9.63
2022-09-28T08:11:14.506Z,9.65
2022-09-28T08:12:14.497Z,9.67
2022-09-28T08:13:14.460Z,9.67
2022-09-28T08:14:14.514Z,9.68
2022-09-28T08:15:14.476Z,9.68
2022-09-28T08:16:14.574Z,9.71
2022-09-28T08:17:14.407Z,9.70
2022-09-28T08:18:14.402Z,9.73
2022-09-28T08:19:14.388Z,9.74
2022-09-28T08:20:14.369Z,9.74
2022-09-28T08:21:14.376Z,9.74
2022-09-28T08:22:14.346Z,9.75
2022-09-28T08:23:14.327Z,9.77
2022-09-28T08:24:14.375Z,9.78
2022-09-28T08:25:14.318Z,9.80
2022-09-28T08:26:15.687Z,9.78
2022-09-28T08:27:14.298Z,9.78
2022-09-28T08:28:14.265Z,9.78
2022-09-28T08:29:14.246Z,9.80
2022-09-28T08:30:14.247Z,9.83
2022-09-28T08:31:14.308Z,9.83
2022-09-28T08:32:14.218Z,9.83
2022-09-28T08:33:14.196Z,9.85
2022-09-28T08:34:14.230Z,9.86
2022-09-28T08:35:14.182Z,9.88
2022-09-28T08:36:14.164Z,9.88
2022-09-28T08:37:14.144Z,9.89
2022-09-28T08:38:14.126Z,9.91
2022-09-28T08:39:14.106Z,9.91
2022-09-28T08:40:14.099Z,9.93
2022-09-28T08:41:14.095Z,9.93
2022-09-28T08:42:14.083Z,9.95
2022-09-28T08:43:14.055Z,9.95
2022-09-28T08:44:14.149Z,9.96
2022-09-28T08:45:14.042Z,9.98
2022-09-28T08:46:14.090Z,9.98
2022-09-28T08:47:14.003Z,9.98
2022-09-28T08:48:13.991Z,9.98
2022-09-28T08:49:30.807Z,9.96
2022-09-28T08:50:14.968Z,9.98
2022-09-28T08:51:13.964Z,9.98
2022-09-28T08:52:13.947Z,9.98
2022-09-28T08:53:13.921Z,9.96
2022-09-28T08:54:13.945Z,9.98
2022-09-28T08:55:13.921Z,9.98
2022-09-28T08:56:13.905Z,9.96
2022-09-28T08:57:13.874Z,9.96
2022-09-28T08:58:13.861Z,9.96
2022-09-28T08:59:13.862Z,9.95
2022-09-28T09:00:13.839Z,9.95
2022-09-28T09:01:13.873Z,9.95
2022-09-28T09:02:13.847Z,9.95
2022-09-28T09:03:13.790Z,9.95
2022-09-28T09:04:13.829Z,9.96
2022-09-28T09:05:13.773Z,9.96
2022-09-28T09:06:18.178Z,9.96
2022-09-28T09:07:13.730Z,9.99
2022-09-28T09:08:13.731Z,9.98
2022-09-28T09:09:13.701Z,10.01
2022-09-28T09:10:13.709Z,9.99
2022-09-28T09:11:13.680Z,10.02
2022-09-28T09:12:13.681Z,10.02
2022-09-28T09:13:13.657Z,10.01
2022-09-28T09:14:13.694Z,10.01
2022-09-28T09:15:13.640Z,10.01
2022-09-28T09:16:13.647Z,10.02
2022-09-28T09:17:13.612Z,10.01
2022-09-28T09:18:15.558Z,9.98
2022-09-28T09:19:13.580Z,9.95
2022-09-28T09:20:13.579Z,9.93
2022-09-28T09:21:13.554Z,9.93
2022-09-28T09:22:13.540Z,9.92
2022-09-28T09:23:13.530Z,9.91
2022-09-28T09:24:13.562Z,9.91
2022-09-28T09:25:13.510Z,9.93
2022-09-28T09:26:16.041Z,9.92
2022-09-28T09:27:13.470Z,9.96
2022-09-28T09:28:13.451Z,9.95
2022-09-28T09:29:13.438Z,9.92
2022-09-28T09:30:14.734Z,9.92
2022-09-28T09:31:13.472Z,9.92
2022-09-28T09:32:13.400Z,9.92
2022-09-28T09:33:13.396Z,9.92
2022-09-28T09:34:13.369Z,9.95
2022-09-28T09:35:13.373Z,9.96
2022-09-28T09:36:13.345Z,9.98
2022-09-28T09:37:13.341Z,9.99
2022-09-28T09:38:13.317Z,9.98
2022-09-28T09:39:13.314Z,9.99
2022-09-28T09:40:13.304Z,10.01
2022-09-28T09:42:13.265Z,10.02
2022-09-28T09:43:13.267Z,10.04
2022-09-28T09:44:13.276Z,10.01
2022-09-28T09:45:13.244Z,10.01
2022-09-28T09:46:13.272Z,9.99
2022-09-28T09:47:13.205Z,10.01
2022-09-28T09:48:13.185Z,10.01
2022-09-28T09:49:13.179Z,10.01
2022-09-28T09:50:13.166Z,10.01
2022-09-28T09:51:13.145Z,9.99
2022-09-28T09:52:13.167Z,10.01
2022-09-28T09:53:13.126Z,10.02
2022-09-28T09:54:13.107Z,10.01
2022-09-28T09:55:13.104Z,10.02
2022-09-28T09:56:13.076Z,10.02
2022-09-28T09:57:13.079Z,10.06
2022-09-28T09:58:13.053Z,10.07
2022-09-28T09:59:13.055Z,10.09
2022-09-28T10:00:13.025Z,10.13
2022-09-28T10:01:13.138Z,10.20
2022-09-28T10:02:13.050Z,10.28
2022-09-28T10:03:12.983Z,10.35
2022-09-28T10:04:12.985Z,10.42
2022-09-28T10:05:12.962Z,10.51
2022-09-28T10:06:12.942Z,10.58
2022-09-28T10:07:12.934Z,10.70
2022-09-28T10:08:12.922Z,10.80
2022-09-28T10:09:12.928Z,10.90
2022-09-28T10:10:12.894Z,11.01
2022-09-28T10:11:12.900Z,11.08
2022-09-28T10:12:12.866Z,11.19
2022-09-28T10:13:12.852Z,11.23
2022-09-28T10:14:12.855Z,11.27
2022-09-28T10:15:12.833Z,11.28
2022-09-28T10:16:12.845Z,11.33
2022-09-28T10:17:12.791Z,11.31
2022-09-28T10:18:12.782Z,11.31
2022-09-28T10:19:12.784Z,11.30
2022-09-28T10:20:12.751Z,11.33
2022-09-28T10:21:12.757Z,11.35
2022-09-28T10:22:12.736Z,11.33
2022-09-28T10:23:12.755Z,11.35
2022-09-28T10:24:12.702Z,11.33
2022-09-28T10:25:12.693Z,11.31
2022-09-28T10:26:12.682Z,11.31
2022-09-28T10:27:12.669Z,11.31
2022-09-28T10:28:12.670Z,11.36
2022-09-28T10:29:12.643Z,11.38
2022-09-28T10:30:12.633Z,11.41
2022-09-28T10:31:12.640Z,11.45
2022-09-28T10:32:12.591Z,11.48
2022-09-28T10:33:12.600Z,11.53
2022-09-28T10:34:12.570Z,11.56
2022-09-28T10:35:12.561Z,11.60
2022-09-28T10:36:12.541Z,11.62
2022-09-28T10:37:12.531Z,11.66
2022-09-28T10:38:12.529Z,11.67
2022-09-28T10:39:12.510Z,11.70
2022-09-28T10:40:12.493Z,11.72
2022-09-28T10:41:12.506Z,11.74
2022-09-28T10:42:12.469Z,11.75
2022-09-28T10:43:12.474Z,11.77
2022-09-28T10:44:12.451Z,11.79
2022-09-28T10:45:12.438Z,11.84
2022-09-28T10:46:12.472Z,11.90
2022-09-28T10:47:12.414Z,11.98
2022-09-28T10:48:12.405Z,12.04
2022-09-28T10:49:12.384Z,12.15
2022-09-28T10:50:12.349Z,12.22
2022-09-28T10:51:12.356Z,12.34
2022-09-28T10:52:12.328Z,12.46
2022-09-28T10:53:12.339Z,12.56
2022-09-28T10:54:12.301Z,12.67
2022-09-28T10:55:12.297Z,12.74
2022-09-28T10:56:12.279Z,12.79
2022-09-28T10:57:13.543Z,12.88
2022-09-28T10:58:12.263Z,12.96
2022-09-28T10:59:12.242Z,13.07
2022-09-28T11:00:12.228Z,13.16
2022-09-28T11:01:12.280Z,13.28
2022-09-28T11:02:12.259Z,13.38
2022-09-28T11:03:12.198Z,13.48
2022-09-28T11:04:12.167Z,13.62
2022-09-28T11:05:12.158Z,13.68
2022-09-28T11:06:12.147Z,13.69
2022-09-28T11:07:13.323Z,13.71
2022-09-28T11:08:12.129Z,13.68
2022-09-28T11:09:12.112Z,13.71
2022-09-28T11:10:12.092Z,13.69
2022-09-28T11:11:12.077Z,13.66
2022-09-28T11:12:12.068Z,13.63
2022-09-28T11:13:12.060Z,13.62
2022-09-28T11:14:12.041Z,13.59
2022-09-28T11:15:12.037Z,13.62
2022-09-28T11:16:12.089Z,13.63
2022-09-28T11:17:11.997Z,13.71
2022-09-28T11:18:12.007Z,13.73
2022-09-28T11:19:11.981Z,13.76
2022-09-28T11:20:11.957Z,13.81
2022-09-28T11:21:13.202Z,13.84
2022-09-28T11:22:13.895Z,13.86
2022-09-28T11:23:11.935Z,13.87
2022-09-28T11:24:15.500Z,13.90
2022-09-28T11:25:12.999Z,13.90
2022-09-28T11:26:14.851Z,13.88
2022-09-28T11:27:12.868Z,13.87
2022-09-28T11:28:11.855Z,13.86
2022-09-28T11:29:11.895Z,13.84
2022-09-28T11:30:11.819Z,13.79
2022-09-28T11:31:11.893Z,13.72
2022-09-28T11:32:15.723Z,13.65
2022-09-28T11:33:11.794Z,13.55
2022-09-28T11:34:11.764Z,13.47
2022-09-28T11:35:11.760Z,13.44
2022-09-28T11:36:11.746Z,13.41
2022-09-28T11:37:11.744Z,13.41
2022-09-28T11:38:11.719Z,13.39
2022-09-28T11:39:11.707Z,13.43
2022-09-28T11:40:11.688Z,13.47
2022-09-28T11:41:11.677Z,13.57
2022-09-28T11:42:16.095Z,13.73
2022-09-28T11:43:13.353Z,13.81
2022-09-28T11:44:11.688Z,13.87
2022-09-28T11:45:11.634Z,13.93
2022-09-28T11:46:11.721Z,13.96
2022-09-28T11:47:11.616Z,13.98
2022-09-28T11:48:11.575Z,13.96
2022-09-28T11:49:11.569Z,13.93
2022-09-28T11:50:11.557Z,13.86
2022-09-28T11:51:11.544Z,13.81
2022-09-28T11:52:11.536Z,13.72
2022-09-28T11:53:11.525Z,13.68
2022-09-28T11:54:11.564Z,13.63
2022-09-28T11:55:11.495Z,13.61
2022-09-28T11:56:11.472Z,13.55
2022-09-28T11:57:11.473Z,13.53
2022-09-28T11:58:11.446Z,13.48
2022-09-28T11:59:11.434Z,13.43
2022-09-28T12:00:11.425Z,13.39
2022-09-28T12:01:14.296Z,13.32
2022-09-28T12:02:12.550Z,13.27
2022-09-28T12:03:11.460Z,13.21
2022-09-28T12:04:11.432Z,13.14
2022-09-28T12:05:11.371Z,13.10
2022-09-28T12:06:12.083Z,13.06
2022-09-28T12:07:11.335Z,13.03
2022-09-28T12:08:11.317Z,12.98
2022-09-28T12:09:11.348Z,12.98
2022-09-28T12:10:11.286Z,12.95
2022-09-28T12:11:11.278Z,12.92
2022-09-28T12:12:11.263Z,12.89
2022-09-28T12:13:11.254Z,12.85
2022-09-28T12:14:11.234Z,12.81
2022-09-28T12:15:11.226Z,12.80
2022-09-28T12:16:38.763Z,12.79
2022-09-28T12:17:15.371Z,12.76
2022-09-28T12:18:12.231Z,12.73
2022-09-28T12:19:11.198Z,12.70
2022-09-28T12:20:11.153Z,12.67
2022-09-28T12:21:11.146Z,12.62
2022-09-28T12:22:11.137Z,12.58
2022-09-28T12:23:11.117Z,12.56
2022-09-28T12:24:11.118Z,12.51
2022-09-28T12:25:11.092Z,12.43
2022-09-28T12:26:11.062Z,12.36
2022-09-28T12:27:11.092Z,12.29
2022-09-28T12:28:11.042Z,12.23
2022-09-28T12:29:11.071Z,12.19
2022-09-28T12:30:11.024Z,12.15
2022-09-28T12:31:11.069Z,12.11
2022-09-28T12:32:11.012Z,12.07
2022-09-28T12:33:10.983Z,12.04
2022-09-28T12:34:10.964Z,12.01
2022-09-28T12:35:10.962Z,11.98
2022-09-28T12:36:10.943Z,11.94
2022-09-28T12:37:10.941Z,11.93
2022-09-28T12:38:10.910Z,11.88
2022-09-28T12:39:27.131Z,11.85
2022-09-28T12:40:11.891Z,11.81
2022-09-28T12:41:10.882Z,11.77
2022-09-28T12:42:10.857Z,11.72
2022-09-28T12:43:10.859Z,11.69
2022-09-28T12:44:10.824Z,11.66
2022-09-28T12:45:10.819Z,11.63
2022-09-28T12:46:12.327Z,11.59
2022-09-28T12:47:10.879Z,11.57
2022-09-28T12:48:10.772Z,11.57
2022-09-28T12:50:07.263Z,11.57
2022-09-28T12:50:45.564Z,11.56
2022-09-28T12:52:24.865Z,11.53
2022-09-28T12:53:24.824Z,11.51
2022-09-28T12:54:24.823Z,11.51
2022-09-28T12:55:24.794Z,11.53
2022-09-28T12:56:24.872Z,11.54
2022-09-28T12:57:24.784Z,11.57
2022-09-28T12:58:24.763Z,11.62
2022-09-28T12:59:24.753Z,11.66
2022-09-28T13:00:24.757Z,11.74
2022-09-28T13:01:24.761Z,11.81
2022-09-28T13:02:24.765Z,11.90
2022-09-28T13:03:24.693Z,12.03
2022-09-28T13:04:24.683Z,12.12
2022-09-28T13:05:24.694Z,12.21
2022-09-28T13:06:24.664Z,12.31
2022-09-28T13:07:24.643Z,12.37
2022-09-28T13:08:24.634Z,12.44
2022-09-28T13:09:24.614Z,12.51
2022-09-28T13:10:24.621Z,12.61
2022-09-28T13:11:24.603Z,12.76
2022-09-28T13:12:24.605Z,12.91
2022-09-28T13:13:24.572Z,13.09